Observations for CROTONE, Italy (LIBC)

LIBC 251750Z 25004KT CAVOK 27/19 Q1015  
LIBC 251650Z 27004KT 220V300 CAVOK 29/19 Q1015  
LIBC 251550Z 02006KT CAVOK 31/16 Q1015  
LIBC 251450Z 02008KT 340V050 CAVOK 30/16 Q1015  
LIBC 251350Z 02009KT CAVOK 31/14 Q1015  
LIBC 251250Z 04008KT 010V070 CAVOK 30/17 Q1016  
LIBC 251150Z 05009KT 010V080 CAVOK 30/19 Q1016  
LIBC 251050Z 04008KT 360V070 CAVOK 30/18 Q1016  
LIBC 250950Z 05009KT 010V080 CAVOK 30/18 Q1016  
LIBC 250850Z 03008KT 350V060 CAVOK 30/17 Q1017  
LIBC 250750Z 02006KT CAVOK 29/17 Q1017  
LIBC 250650Z 01009KT CAVOK 27/17 Q1016  
LIBC 250600Z 01007KT CAVOK 26/18 Q1016